Time;durP1;ratioP1;P1;durP2;ratioP2;P2;SDS_P1;SDS_P2;PMS_P1;PMS_P2;Temp;Humidity;BMP_temperature;BMP_pressure;BME280_temperature;BME280_humidity;BME280_pressure;Samples;Min_cycle;Max_cycle;Signal;HPM_P1;HPM_P2
2023/05/22 00:01:18;;;;;;;7.07;4.00;;;12.30;99.90;;;11.56;100.00;101384.41;4190993;28;20036;-69
2023/05/22 00:03:19;;;;;;;7.60;4.18;;;12.30;99.90;;;11.61;100.00;101391.91;4185042;28;20036;-69
2023/05/22 00:05:20;;;;;;;5.50;3.83;;;12.20;99.90;;;11.57;100.00;101396.66;4189214;28;20111;-69
2023/05/22 00:07:21;;;;;;;4.15;3.47;;;12.20;99.90;;;11.57;100.00;101399.31;4192209;28;20032;-69
2023/05/22 00:09:25;;;;;;;5.88;3.90;;;12.20;99.90;;;11.53;100.00;101395.28;4200266;28;20069;-69
2023/05/22 00:11:26;;;;;;;8.95;4.15;;;12.10;99.90;;;11.52;100.00;101395.44;4187576;28;20024;-69
2023/05/22 00:13:26;;;;;;;5.72;3.95;;;12.10;99.90;;;11.47;100.00;101389.75;4185187;28;20025;-69
2023/05/22 00:15:27;;;;;;;5.15;4.10;;;12.10;99.90;;;11.44;100.00;101393.50;4185251;28;20024;-69
2023/05/22 00:17:29;;;;;;;8.02;4.20;;;12.10;99.90;;;11.44;100.00;101398.00;4194611;28;20041;-69
2023/05/22 00:19:31;;;;;;;7.05;3.95;;;12.00;99.90;;;11.42;100.00;101402.56;4184618;28;20021;-69
2023/05/22 00:21:33;;;;;;;12.10;4.40;;;12.00;99.90;;;11.40;100.00;101394.81;4188816;28;20396;-69
2023/05/22 00:23:34;;;;;;;5.13;4.00;;;12.00;99.90;;;11.37;100.00;101397.72;4201669;28;20035;-69
2023/05/22 00:25:36;;;;;;;9.90;4.72;;;12.00;99.90;;;11.35;100.00;101399.66;4201754;28;20024;-69
2023/05/22 00:27:37;;;;;;;8.55;5.00;;;11.90;99.90;;;11.35;100.00;101396.22;4186838;28;20029;-69
2023/05/22 00:29:38;;;;;;;6.72;4.28;;;11.90;99.90;;;11.36;100.00;101403.13;4186049;28;20064;-69
2023/05/22 00:31:38;;;;;;;8.50;4.82;;;11.90;99.90;;;11.33;100.00;101406.06;4193863;28;20124;-69
2023/05/22 00:33:39;;;;;;;6.53;4.05;;;11.90;99.90;;;11.32;100.00;101412.34;4193532;28;20028;-69
2023/05/22 00:35:40;;;;;;;6.80;4.13;;;11.90;99.90;;;11.27;100.00;101404.00;4184614;28;20029;-69
2023/05/22 00:37:43;;;;;;;7.53;4.22;;;11.90;99.90;;;11.29;100.00;101410.81;4183658;28;20025;-69
2023/05/22 00:39:45;;;;;;;6.97;4.32;;;11.90;99.90;;;11.26;100.00;101407.66;4187937;28;20027;-69
2023/05/22 00:41:46;;;;;;;5.88;4.22;;;11.80;99.90;;;11.22;100.00;101401.81;4194091;28;20100;-69
2023/05/22 00:43:47;;;;;;;5.65;3.92;;;11.80;99.90;;;11.18;100.00;101404.88;4188760;28;20025;-69
2023/05/22 00:45:48;;;;;;;8.45;4.30;;;11.80;99.90;;;11.14;100.00;101411.44;4184700;28;20397;-69
2023/05/22 00:47:49;;;;;;;5.65;4.50;;;11.70;99.90;;;11.08;100.00;101408.38;4184773;28;20132;-69
2023/05/22 00:49:50;;;;;;;5.35;3.95;;;11.70;99.90;;;11.08;100.00;101405.72;4192701;28;20040;-69
2023/05/22 00:51:51;;;;;;;6.32;3.80;;;11.70;99.90;;;11.05;100.00;101415.78;4187298;28;20025;-69
2023/05/22 00:53:53;;;;;;;7.10;4.38;;;11.70;99.90;;;11.00;100.00;101407.41;4197655;28;20403;-69
2023/05/22 00:55:56;;;;;;;6.80;4.78;;;11.60;99.90;;;10.94;100.00;101408.81;4189545;28;20017;-69
2023/05/22 00:57:57;;;;;;;8.68;4.32;;;11.60;99.90;;;10.92;100.00;101408.16;4184931;28;20021;-69
2023/05/22 00:59:59;;;;;;;8.45;4.20;;;11.50;99.90;;;10.90;100.00;101396.88;4183406;28;20029;-69
2023/05/22 01:02:01;;;;;;;6.10;4.63;;;11.50;99.90;;;10.88;100.00;101401.47;4185125;28;20083;-69
2023/05/22 01:04:06;;;;;;;5.22;4.22;;;11.50;99.90;;;10.87;100.00;101396.34;4189967;28;20021;-69
2023/05/22 01:06:07;;;;;;;6.70;4.38;;;11.50;99.90;;;10.83;100.00;101401.06;4188025;28;20033;-69
2023/05/22 01:08:09;;;;;;;8.05;5.30;;;11.50;99.90;;;10.81;100.00;101402.19;4185451;28;20079;-69
2023/05/22 01:10:10;;;;;;;7.43;5.13;;;11.40;99.90;;;10.78;100.00;101399.84;4190052;28;20078;-69
2023/05/22 01:12:37;;;;;;;7.82;4.90;;;11.40;99.90;;;10.77;100.00;101406.91;4187637;28;20021;-69
2023/05/22 01:15:16;;;;;;;8.57;4.93;;;11.40;99.90;;;10.76;100.00;101396.47;4187558;28;20032;-69
2023/05/22 01:17:45;;;;;;;10.60;4.63;;;11.40;99.90;;;10.71;100.00;101390.81;4201131;28;20029;-69
2023/05/22 01:20:06;;;;;;;6.15;4.40;;;11.40;99.90;;;10.74;100.00;101394.00;4201757;28;20074;-69
2023/05/22 01:23:04;;;;;;;6.28;4.65;;;11.30;99.90;;;10.74;100.00;101390.53;4195648;28;20020;-69
2023/05/22 01:25:29;;;;;;;7.38;4.47;;;11.30;99.90;;;10.75;100.00;101392.19;4182703;28;20047;-69
2023/05/22 01:28:10;;;;;;;7.53;5.17;;;11.30;99.90;;;10.72;100.00;101377.47;4196866;28;20033;-69
2023/05/22 01:30:48;;;;;;;8.63;4.78;;;11.40;99.90;;;10.77;100.00;101388.44;4186389;28;20682;-69
2023/05/22 01:32:52;;;;;;;8.98;5.05;;;11.40;99.90;;;10.76;100.00;101383.28;4180570;28;20048;-69
2023/05/22 01:34:58;;;;;;;5.47;4.55;;;11.40;99.90;;;10.80;100.00;101385.53;4196164;28;20462;-69
2023/05/22 01:37:00;;;;;;;5.93;4.28;;;11.40;99.90;;;10.83;100.00;101390.53;4185925;28;20551;-69
2023/05/22 01:39:05;;;;;;;9.75;5.43;;;11.50;99.90;;;10.84;100.00;101396.63;4199823;28;20056;-69
2023/05/22 01:41:06;;;;;;;7.50;4.95;;;11.50;99.90;;;10.79;100.00;101390.94;4186140;28;20023;-70
2023/05/22 01:43:07;;;;;;;6.97;5.40;;;11.50;99.90;;;10.84;100.00;101402.72;4191629;28;20059;-70
2023/05/22 01:45:11;;;;;;;9.75;4.60;;;11.50;99.90;;;10.79;100.00;101404.97;4189081;28;20508;-69
2023/05/22 01:47:11;;;;;;;6.93;4.18;;;11.40;99.90;;;10.78;100.00;101411.19;4199773;28;20116;-69
2023/05/22 01:49:12;;;;;;;9.02;4.82;;;11.40;99.90;;;10.73;100.00;101407.31;4185891;28;20392;-69
2023/05/22 01:51:36;;;;;;;10.95;5.32;;;11.40;99.90;;;10.74;100.00;101420.38;4192641;28;20519;-69
2023/05/22 01:53:56;;;;;;;7.93;5.00;;;11.40;99.90;;;10.72;100.00;101414.41;4183473;28;20403;-69
2023/05/22 01:56:15;;;;;;;6.90;4.05;;;11.30;99.90;;;10.66;100.00;101409.72;4196666;28;20021;-69
2023/05/22 01:58:48;;;;;;;7.93;5.07;;;11.30;99.90;;;10.60;100.00;101407.63;4185852;28;20028;-69
2023/05/22 02:00:53;;;;;;;7.55;4.50;;;11.30;99.90;;;10.60;100.00;101405.00;4186052;28;20021;-69
2023/05/22 02:03:12;;;;;;;5.68;4.47;;;11.20;99.90;;;10.58;100.00;101401.66;4195232;28;20032;-69
2023/05/22 02:05:17;;;;;;;5.97;4.57;;;11.20;99.90;;;10.57;100.00;101405.28;4192095;28;20029;-69
2023/05/22 02:07:21;;;;;;;9.05;5.53;;;11.20;99.90;;;10.58;100.00;101406.91;4192375;28;20031;-69
2023/05/22 02:09:26;;;;;;;10.85;5.47;;;11.20;99.90;;;10.57;100.00;101403.44;4202114;28;20035;-69
2023/05/22 02:11:31;;;;;;;6.75;4.85;;;11.20;99.90;;;10.58;100.00;101401.66;4201869;28;20123;-69
2023/05/22 02:13:33;;;;;;;8.40;5.57;;;11.20;99.90;;;10.59;100.00;101392.78;4197414;28;20040;-69
2023/05/22 02:15:34;;;;;;;7.20;5.55;;;11.20;99.90;;;10.60;100.00;101394.44;4185574;28;20029;-69
2023/05/22 02:17:43;;;;;;;6.32;4.88;;;11.20;99.90;;;10.62;100.00;101387.22;4196790;28;20099;-69
2023/05/22 02:19:44;;;;;;;5.80;4.20;;;11.20;99.90;;;10.63;100.00;101388.06;4186092;28;20036;-69
2023/05/22 02:21:45;;;;;;;6.22;4.25;;;11.20;99.90;;;10.62;100.00;101387.22;4200365;28;20111;-69
2023/05/22 02:23:45;;;;;;;5.97;4.38;;;11.30;99.90;;;10.60;100.00;101386.53;4203160;28;20040;-69
2023/05/22 02:25:46;;;;;;;7.53;4.93;;;11.20;99.90;;;10.57;100.00;101378.91;4203091;28;20029;-69
2023/05/22 02:27:48;;;;;;;8.68;4.35;;;11.20;99.90;;;10.54;100.00;101381.81;4201599;28;20029;-69
2023/05/22 02:29:49;;;;;;;11.13;5.45;;;11.20;99.90;;;10.50;100.00;101370.69;4203020;28;20021;-69
2023/05/22 02:31:53;;;;;;;8.48;5.00;;;11.20;99.90;;;10.45;100.00;101374.75;4202981;28;20029;-69
2023/05/22 02:33:55;;;;;;;5.60;4.40;;;11.10;99.90;;;10.43;100.00;101374.03;4190117;28;20027;-69
2023/05/22 02:35:56;;;;;;;6.65;4.88;;;11.10;99.90;;;10.42;100.00;101372.38;4184671;28;20035;-69
2023/05/22 02:37:57;;;;;;;7.60;4.80;;;11.10;99.90;;;10.39;100.00;101380.56;4192042;28;20036;-69
2023/05/22 02:39:58;;;;;;;6.50;4.88;;;11.00;99.90;;;10.35;100.00;101384.44;4192934;28;20037;-69
2023/05/22 02:41:59;;;;;;;6.38;4.97;;;11.00;99.90;;;10.33;100.00;101383.75;4188573;28;20051;-69
2023/05/22 02:44:00;;;;;;;5.28;4.10;;;11.00;99.90;;;10.27;100.00;101373.78;4187372;28;20113;-69
2023/05/22 02:46:01;;;;;;;11.10;5.30;;;11.00;99.90;;;10.28;100.00;101384.16;4186240;28;20488;-69
2023/05/22 02:48:02;;;;;;;10.00;5.82;;;10.90;99.90;;;10.26;100.00;101380.84;4193207;28;20052;-69
2023/05/22 02:50:03;;;;;;;7.95;4.72;;;10.90;99.90;;;10.22;100.00;101374.16;4186026;28;20021;-69
2023/05/22 02:52:04;;;;;;;6.72;4.82;;;10.90;99.90;;;10.24;100.00;101379.31;4186008;28;20108;-69
2023/05/22 02:54:05;;;;;;;12.43;5.45;;;10.90;99.90;;;10.21;100.00;101376.97;4186105;28;20029;-69
2023/05/22 02:56:10;;;;;;;6.47;4.60;;;10.80;99.90;;;10.20;100.00;101384.03;4186057;28;20033;-69
2023/05/22 02:58:11;;;;;;;10.27;5.60;;;10.80;99.90;;;10.19;100.00;101382.34;4196649;28;20023;-69
2023/05/22 03:00:12;;;;;;;9.20;5.32;;;10.80;99.90;;;10.17;100.00;101381.66;4185795;28;20061;-69
2023/05/22 03:02:15;;;;;;;13.25;6.00;;;10.80;99.90;;;10.16;100.00;101385.25;4186082;28;20123;-69
2023/05/22 03:04:16;;;;;;;6.75;4.50;;;10.80;99.90;;;10.16;100.00;101382.63;4193359;28;20063;-69
2023/05/22 03:06:17;;;;;;;7.47;5.10;;;10.80;99.90;;;10.16;100.00;101380.00;4189174;28;20558;-69
2023/05/22 03:08:18;;;;;;;9.05;5.80;;;10.80;99.90;;;10.13;100.00;101374.13;4199597;28;20100;-69
2023/05/22 03:10:19;;;;;;;6.88;4.72;;;10.70;99.90;;;10.12;100.00;101378.59;4184624;28;20577;-69
2023/05/22 03:12:20;;;;;;;9.63;5.97;;;10.70;99.90;;;10.07;100.00;101370.22;4185727;28;20104;-69
2023/05/22 03:14:21;;;;;;;8.55;5.22;;;10.70;99.90;;;10.08;100.00;101371.91;4195767;28;20028;-69
2023/05/22 03:16:21;;;;;;;10.77;5.85;;;10.70;99.90;;;10.08;100.00;101368.44;4185604;28;20087;-69
2023/05/22 03:18:22;;;;;;;9.88;5.15;;;10.70;99.90;;;10.03;100.00;101367.03;4185723;28;20025;-69
2023/05/22 03:20:23;;;;;;;12.13;6.05;;;10.70;99.90;;;10.06;100.00;101371.22;4185582;28;20078;-69
2023/05/22 03:22:25;;;;;;;12.77;6.20;;;10.70;99.90;;;9.98;100.00;101361.34;4195073;28;20501;-69
2023/05/22 03:24:26;;;;;;;10.35;6.07;;;10.60;99.90;;;10.03;100.00;101366.22;4200719;28;20036;-69
2023/05/22 03:26:27;;;;;;;9.27;5.32;;;10.70;99.90;;;10.02;100.00;101369.81;4185815;28;20488;-69
2023/05/22 03:28:27;;;;;;;11.70;6.45;;;10.60;99.90;;;9.97;100.00;101361.50;4185472;28;20040;-69
2023/05/22 03:30:28;;;;;;;9.45;5.18;;;10.60;99.90;;;9.96;100.00;101376.47;4193982;28;20082;-69
2023/05/22 03:32:29;;;;;;;8.13;4.97;;;10.60;99.90;;;9.96;100.00;101370.38;4191717;28;20024;-69
2023/05/22 03:34:31;;;;;;;8.32;5.50;;;10.60;99.90;;;9.93;100.00;101374.13;4200450;28;20025;-69
2023/05/22 03:36:35;;;;;;;8.68;5.60;;;10.60;99.90;;;9.91;100.00;101370.78;4194997;28;20049;-69
2023/05/22 03:38:36;;;;;;;11.40;5.70;;;10.50;99.90;;;9.90;100.00;101378.81;4185485;28;20029;-69
2023/05/22 03:40:37;;;;;;;9.38;5.72;;;10.50;99.90;;;9.88;100.00;101363.16;4185311;28;20048;-69
2023/05/22 03:42:37;;;;;;;10.25;6.28;;;10.50;99.90;;;9.88;100.00;101375.50;4190747;28;20090;-69
2023/05/22 03:44:38;;;;;;;10.43;5.82;;;10.50;99.90;;;9.85;100.00;101367.88;4184042;28;20067;-69
2023/05/22 03:46:39;;;;;;;8.50;5.97;;;10.50;99.90;;;9.84;100.00;101368.81;4185313;28;20024;-69
2023/05/22 03:48:40;;;;;;;10.93;6.32;;;10.50;99.90;;;9.79;100.00;101357.88;4184992;28;20086;-69
2023/05/22 03:50:42;;;;;;;7.38;5.95;;;10.50;99.90;;;9.84;100.00;101374.94;4187432;28;20106;-69
2023/05/22 03:52:43;;;;;;;12.95;6.60;;;10.50;99.90;;;9.87;100.00;101379.09;4185281;28;20033;-69
2023/05/22 03:54:44;;;;;;;14.45;7.20;;;10.50;99.90;;;9.87;100.00;101376.47;4185429;28;20029;-69
2023/05/22 03:56:45;;;;;;;8.00;5.45;;;10.50;99.90;;;9.87;100.00;101379.94;4185065;28;20472;-70
2023/05/22 03:58:46;;;;;;;8.15;6.18;;;10.50;99.90;;;9.87;100.00;101377.28;4185273;28;20029;-69
2023/05/22 04:00:47;;;;;;;8.02;5.65;;;10.50;99.90;;;9.90;100.00;101384.09;4185076;28;20044;-69
2023/05/22 04:02:49;;;;;;;8.68;5.70;;;10.50;99.90;;;9.91;100.00;101383.97;4190981;28;20523;-69
2023/05/22 04:04:49;;;;;;;7.15;5.55;;;10.50;99.90;;;9.91;100.00;101391.88;4189419;28;20060;-69
2023/05/22 04:06:51;;;;;;;10.10;5.88;;;10.50;99.90;;;9.91;100.00;101386.59;4187814;28;20025;-69
2023/05/22 04:08:52;;;;;;;11.98;6.10;;;10.50;99.90;;;9.92;100.00;101388.25;4201744;28;20028;-69
2023/05/22 04:10:53;;;;;;;8.35;5.63;;;10.50;99.90;;;9.94;100.00;101394.25;4183720;28;20055;-69
2023/05/22 04:12:54;;;;;;;8.73;6.78;;;10.50;99.90;;;9.89;100.00;101391.16;4201635;28;20029;-69
2023/05/22 04:14:55;;;;;;;8.93;5.53;;;10.60;99.90;;;9.92;100.00;101390.03;4184706;28;20029;-69
2023/05/22 04:16:55;;;;;;;13.02;5.93;;;10.50;99.90;;;9.91;100.00;101386.59;4185139;28;20024;-69
2023/05/22 04:18:56;;;;;;;10.52;6.28;;;10.50;99.90;;;9.91;100.00;101386.59;4185029;28;20108;-69
2023/05/22 04:20:57;;;;;;;10.88;6.50;;;10.50;99.90;;;9.92;100.00;101382.13;4195951;28;20438;-69
2023/05/22 04:22:58;;;;;;;9.25;5.93;;;10.50;99.90;;;9.92;100.00;101388.25;4183643;28;20025;-69
2023/05/22 04:24:59;;;;;;;10.85;6.35;;;10.60;99.90;;;9.93;100.00;101378.56;4190319;28;20026;-69
2023/05/22 04:27:01;;;;;;;10.02;5.97;;;10.60;99.90;;;9.92;100.00;101390.88;4201614;28;20025;-69
2023/05/22 04:29:03;;;;;;;11.35;7.22;;;10.60;99.90;;;9.91;100.00;101389.25;4201501;28;20016;-69
2023/05/22 04:31:05;;;;;;;11.35;6.72;;;10.60;99.90;;;9.88;100.00;101389.50;4200149;28;20024;-69
2023/05/22 04:33:07;;;;;;;9.25;5.97;;;10.60;99.90;;;9.87;100.00;101384.38;4201831;28;20025;-69
2023/05/22 04:35:10;;;;;;;12.32;6.50;;;10.50;99.90;;;9.91;100.00;101385.78;4191487;28;20040;-69
2023/05/22 04:37:13;;;;;;;10.38;6.03;;;10.60;99.90;;;9.93;100.00;101392.56;4183863;28;20447;-69
2023/05/22 04:39:14;;;;;;;11.57;6.43;;;10.60;99.90;;;9.96;100.00;101394.09;4200375;28;20068;-69
2023/05/22 04:41:16;;;;;;;10.63;6.60;;;10.60;99.90;;;9.98;100.00;101397.41;4201533;28;20027;-69
2023/05/22 04:43:17;;;;;;;9.13;5.70;;;10.60;99.90;;;10.00;100.00;101398.13;4195330;28;20029;-69
2023/05/22 04:45:20;;;;;;;8.75;6.35;;;10.60;99.90;;;10.00;100.00;101395.50;4188064;28;20044;-69
2023/05/22 04:47:21;;;;;;;10.90;6.72;;;10.60;99.90;;;10.00;100.00;101395.50;4187725;28;20045;-69
2023/05/22 04:49:23;;;;;;;13.75;7.35;;;10.60;99.90;;;9.99;100.00;101388.53;4187848;28;20033;-69
2023/05/22 04:51:24;;;;;;;11.05;6.25;;;10.60;99.90;;;10.03;100.00;101397.84;4195421;28;20021;-69
2023/05/22 04:53:26;;;;;;;11.95;6.57;;;10.60;99.90;;;10.07;100.00;101388.69;4187913;28;20048;-69
2023/05/22 04:55:27;;;;;;;11.00;6.95;;;10.70;99.90;;;10.10;100.00;101400.75;4202264;28;20096;-69
2023/05/22 04:57:28;;;;;;;10.80;6.88;;;10.70;99.90;;;10.13;100.00;101405.75;4186792;28;20028;-69
2023/05/22 04:59:36;;;;;;;11.25;7.30;;;10.70;99.90;;;10.19;100.00;101406.09;4196323;28;20021;-69
2023/05/22 05:01:37;;;;;;;12.55;6.53;;;10.80;99.90;;;10.22;100.00;101415.50;4199578;28;20056;-69
2023/05/22 05:03:38;;;;;;;14.45;6.75;;;10.80;99.90;;;10.25;100.00;101404.69;4188352;28;20029;-69
2023/05/22 05:05:39;;;;;;;11.75;6.90;;;10.80;99.90;;;10.30;100.00;101413.03;4197618;28;20032;-69
2023/05/22 05:07:42;;;;;;;10.63;6.63;;;10.90;99.90;;;10.33;100.00;101407.50;4204424;28;20047;-69
2023/05/22 05:09:43;;;;;;;11.52;7.47;;;10.90;99.90;;;10.39;100.00;101413.03;4203006;28;20032;-69
2023/05/22 05:11:44;;;;;;;12.63;6.90;;;10.90;99.90;;;10.43;100.00;101414.44;4204304;28;20024;-69
2023/05/22 05:13:45;;;;;;;12.20;7.55;;;11.00;99.90;;;10.45;100.00;101407.19;4196676;28;20027;-69
2023/05/22 05:15:46;;;;;;;11.60;7.07;;;11.00;99.90;;;10.48;100.00;101406.91;4186449;28;20096;-69
2023/05/22 05:17:46;;;;;;;13.60;7.25;;;11.10;99.90;;;10.56;100.00;101416.78;4199163;28;20031;-69
2023/05/22 05:19:47;;;;;;;12.60;7.25;;;11.10;99.90;;;10.60;100.00;101415.56;4185588;28;20482;-69
2023/05/22 05:21:48;;;;;;;11.48;6.97;;;11.20;99.90;;;10.65;100.00;101412.47;4202776;28;20036;-69
2023/05/22 05:23:50;;;;;;;11.63;6.20;;;11.20;99.90;;;10.71;100.00;101412.75;4195742;28;20499;-69
2023/05/22 05:25:51;;;;;;;10.73;6.65;;;11.20;99.90;;;10.75;100.00;101422.03;4187333;28;20059;-69
2023/05/22 05:27:52;;;;;;;9.98;7.05;;;11.30;99.90;;;10.78;100.00;101416.47;4187322;28;20025;-69
2023/05/22 05:29:53;;;;;;;10.68;6.55;;;11.30;99.90;;;10.83;100.00;101416.91;4192187;28;20074;-69
2023/05/22 05:31:54;;;;;;;10.90;6.63;;;11.40;99.90;;;10.90;100.00;101425.91;4187447;28;20032;-69
2023/05/22 05:33:56;;;;;;;12.35;7.65;;;11.40;99.90;;;10.93;100.00;101419.53;4187427;28;20028;-69
2023/05/22 05:35:57;;;;;;;12.70;6.90;;;11.50;99.90;;;10.97;100.00;101419.09;4186918;28;20036;-69
2023/05/22 05:37:58;;;;;;;13.10;6.95;;;11.50;99.90;;;11.00;100.00;101424.09;4191786;28;20028;-69
2023/05/22 05:39:59;;;;;;;10.80;6.70;;;11.60;99.90;;;11.02;100.00;101416.84;4193208;28;20025;-69
2023/05/22 05:42:00;;;;;;;13.68;7.70;;;11.60;99.90;;;11.08;100.00;101423.38;4199590;28;20484;-69
2023/05/22 05:44:01;;;;;;;11.23;6.57;;;11.60;99.90;;;11.14;100.00;101424.63;4186799;28;20025;-69
2023/05/22 05:46:02;;;;;;;11.52;7.28;;;11.70;99.90;;;11.19;100.00;101425.03;4187225;28;20507;-69
2023/05/22 05:48:03;;;;;;;10.73;6.95;;;11.70;99.90;;;11.27;100.00;101425.97;4194307;28;20552;-69
2023/05/22 05:50:05;;;;;;;13.32;7.53;;;11.80;99.90;;;11.26;100.00;101426.13;4186739;28;20033;-69
2023/05/22 05:52:06;;;;;;;9.52;6.53;;;11.80;99.90;;;11.32;100.00;101429.00;4186969;28;20059;-69
2023/05/22 05:54:07;;;;;;;14.57;6.50;;;11.90;99.90;;;11.39;100.00;101429.28;4185112;28;20029;-69
2023/05/22 05:56:09;;;;;;;15.95;7.60;;;11.90;99.90;;;11.39;100.00;101419.53;4187188;28;20032;-69
2023/05/22 05:58:09;;;;;;;16.50;7.03;;;12.00;99.90;;;11.42;100.00;101431.63;4197264;28;20017;-69
2023/05/22 06:00:11;;;;;;;10.73;6.05;;;12.00;99.90;;;11.49;100.00;101422.16;4199137;28;20381;-69
2023/05/22 06:02:12;;;;;;;16.20;6.45;;;12.00;99.90;;;11.59;100.00;101431.69;4190535;28;20510;-69
2023/05/22 06:04:13;;;;;;;10.15;6.03;;;12.10;99.90;;;11.66;100.00;101426.66;4188186;28;20036;-68
2023/05/22 06:06:16;;;;;;;10.77;6.18;;;12.10;99.90;;;11.72;100.00;101430.56;4191679;28;20082;-68
2023/05/22 06:08:18;;;;;;;9.73;6.20;;;12.20;99.90;;;11.77;100.00;101434.41;4200539;28;20115;-69
2023/05/22 06:10:19;;;;;;;9.93;6.40;;;12.20;99.90;;;11.80;100.00;101434.13;4197335;28;20029;-69
2023/05/22 06:12:20;;;;;;;13.10;6.15;;;12.30;99.90;;;11.83;100.00;101428.53;4186790;28;20032;-69
2023/05/22 06:14:21;;;;;;;12.23;5.82;;;12.30;99.90;;;11.88;100.00;101422.84;4197890;28;20409;-69
2023/05/22 06:16:22;;;;;;;11.73;5.88;;;12.40;99.90;;;11.89;100.00;101421.81;4187205;28;20024;-69
2023/05/22 06:18:24;;;;;;;9.73;5.50;;;12.40;99.90;;;11.95;100.00;101422.06;4196610;28;20076;-69
2023/05/22 06:20:26;;;;;;;11.10;6.10;;;12.50;99.90;;;11.98;100.00;101431.53;4193269;28;20028;-69
2023/05/22 06:22:28;;;;;;;12.23;6.53;;;12.50;99.90;;;12.07;100.00;101434.13;4185370;28;20043;-69
2023/05/22 06:24:30;;;;;;;10.10;5.53;;;12.60;99.90;;;12.19;100.00;101432.09;4197284;28;20028;-69
2023/05/22 06:26:32;;;;;;;14.57;6.40;;;12.70;99.90;;;12.40;100.00;101440.56;4186772;28;20039;-69
2023/05/22 06:28:33;;;;;;;10.10;5.45;;;12.70;99.90;;;12.59;100.00;101439.59;4186593;28;20508;-69
2023/05/22 06:30:35;;;;;;;11.98;6.43;;;12.90;99.90;;;12.60;100.00;101439.44;4186382;28;20044;-69
2023/05/22 06:32:35;;;;;;;10.50;5.43;;;12.90;99.90;;;12.68;100.00;101443.97;4186309;28;20032;-69
2023/05/22 06:34:36;;;;;;;7.50;4.35;;;13.00;99.90;;;12.83;100.00;101444.25;4194605;28;20021;-69
2023/05/22 06:36:37;;;;;;;10.05;5.30;;;13.10;99.90;;;12.85;100.00;101448.41;4186200;28;20029;-69
2023/05/22 06:38:39;;;;;;;13.07;5.53;;;13.20;99.90;;;12.77;100.00;101449.19;4207269;28;20035;-69
2023/05/22 06:40:40;;;;;;;8.52;5.30;;;13.20;99.90;;;12.81;100.00;101460.31;4187262;28;20025;-68
2023/05/22 06:42:43;;;;;;;11.95;5.82;;;13.30;99.90;;;12.71;100.00;101456.91;4195237;28;20040;-69
2023/05/22 06:44:44;;;;;;;13.05;5.20;;;13.30;99.90;;;12.85;100.00;101463.47;4198803;28;20031;-69
2023/05/22 06:46:45;;;;;;;9.90;5.13;;;13.30;99.90;;;12.86;100.00;101463.31;4191553;28;20029;-69
2023/05/22 06:48:45;;;;;;;13.32;5.55;;;13.40;99.90;;;12.89;100.00;101476.25;4199049;28;20127;-69
2023/05/22 06:50:46;;;;;;;11.82;5.10;;;13.40;99.90;;;12.96;100.00;101471.19;4185924;28;20485;-69
2023/05/22 06:52:48;;;;;;;8.35;5.18;;;13.40;99.90;;;12.88;100.00;101464.00;4186111;28;20025;-69
2023/05/22 06:54:49;;;;;;;10.20;5.30;;;13.50;99.90;;;12.95;100.00;101473.00;4189295;28;20033;-69
2023/05/22 06:56:49;;;;;;;12.38;5.65;;;13.50;99.90;;;13.00;100.00;101476.00;4185912;28;20032;-69
2023/05/22 06:58:50;;;;;;;10.57;4.30;;;13.50;99.90;;;13.10;100.00;101474.16;4188894;28;20392;-69
2023/05/22 07:00:52;;;;;;;9.55;4.15;;;13.60;99.90;;;13.22;100.00;101477.38;4184692;28;20028;-69
2023/05/22 07:02:53;;;;;;;6.85;4.20;;;13.60;99.90;;;13.31;100.00;101476.44;4185687;28;20068;-69
2023/05/22 07:04:54;;;;;;;9.93;4.63;;;13.70;99.90;;;13.34;100.00;101486.72;4190147;28;20444;-69
2023/05/22 07:06:55;;;;;;;11.30;4.38;;;13.80;99.90;;;13.35;100.00;101484.91;4188052;28;20036;-69
2023/05/22 07:08:56;;;;;;;10.38;4.55;;;13.80;99.90;;;13.37;100.00;101485.56;4184758;28;20024;-69
2023/05/22 07:10:57;;;;;;;15.73;5.30;;;13.90;99.90;;;13.44;100.00;101492.72;4184592;28;20033;-69
2023/05/22 07:12:58;;;;;;;9.75;4.10;;;14.00;99.90;;;13.52;100.00;101487.50;4198920;28;20059;-69
2023/05/22 07:14:59;;;;;;;9.00;4.10;;;14.00;99.90;;;13.63;100.00;101489.03;4200854;28;20032;-69
2023/05/22 07:17:00;;;;;;;10.32;4.53;;;14.10;99.90;;;13.68;100.00;101486.75;4184641;28;20021;-69
2023/05/22 07:19:02;;;;;;;9.15;4.20;;;14.20;99.90;;;13.81;100.00;101492.44;4185714;28;20024;-69
2023/05/22 07:21:03;;;;;;;7.38;4.07;;;14.20;99.90;;;13.92;100.00;101486.84;4185440;28;20059;-69
2023/05/22 07:23:03;;;;;;;10.02;4.15;;;14.40;99.90;;;13.96;100.00;101485.56;4185642;28;20484;-69
2023/05/22 07:25:05;;;;;;;12.18;4.35;;;14.50;99.90;;;13.96;100.00;101487.38;4195878;28;20028;-69
2023/05/22 07:27:07;;;;;;;8.10;4.18;;;14.50;99.90;;;13.95;100.00;101485.72;4185802;28;20171;-69
2023/05/22 07:29:08;;;;;;;7.15;4.35;;;14.50;99.90;;;14.01;100.00;101479.78;4185478;28;20021;-69
2023/05/22 07:31:09;;;;;;;6.97;3.83;;;14.60;99.90;;;14.10;100.00;101484.94;4185406;28;20028;-68
2023/05/22 07:33:10;;;;;;;13.15;3.78;;;14.60;99.90;;;14.24;100.00;101484.34;4185736;28;20515;-69
2023/05/22 07:35:11;;;;;;;14.48;4.38;;;14.70;99.90;;;14.33;100.00;101480.75;4193080;28;20032;-69
2023/05/22 07:37:13;;;;;;;7.88;3.65;;;14.80;99.90;;;14.46;100.00;101485.56;4185609;28;20021;-69
2023/05/22 07:39:14;;;;;;;9.80;3.88;;;14.90;99.90;;;14.49;100.00;101481.75;4185327;28;20532;-69
2023/05/22 07:41:15;;;;;;;9.45;4.45;;;15.00;99.90;;;14.60;100.00;101487.59;4185496;28;20108;-68
2023/05/22 07:43:16;;;;;;;7.35;3.63;;;15.00;99.90;;;14.70;100.00;101482.94;4191653;28;20074;-69
2023/05/22 07:45:16;;;;;;;9.52;3.78;;;15.20;99.90;;;14.71;100.00;101484.63;4190013;28;20013;-69
2023/05/22 07:47:17;;;;;;;11.55;4.47;;;15.20;99.90;;;14.78;100.00;101485.59;4185073;28;20052;-69
2023/05/22 07:49:20;;;;;;;10.88;3.75;;;15.30;99.90;;;14.84;100.00;101484.13;4185466;28;20025;-69
2023/05/22 07:51:21;;;;;;;6.97;3.70;;;15.40;99.90;;;14.91;100.00;101480.63;4185180;28;20036;-69
2023/05/22 07:53:22;;;;;;;10.20;3.95;;;15.40;99.90;;;14.95;100.00;101479.31;4186891;28;20025;-68
2023/05/22 07:55:23;;;;;;;8.63;3.67;;;15.50;99.90;;;15.03;100.00;101475.81;4187049;28;20025;-69
2023/05/22 07:57:24;;;;;;;7.68;3.55;;;15.50;99.90;;;15.06;100.00;101478.16;4185513;28;20396;-69
2023/05/22 07:59:25;;;;;;;8.40;4.53;;;15.60;99.90;;;15.06;100.00;101477.31;4185279;28;20029;-68
2023/05/22 08:01:25;;;;;;;7.50;3.75;;;15.60;99.90;;;15.14;100.00;101475.47;4185182;28;20545;-69
2023/05/22 08:03:26;;;;;;;6.45;4.30;;;15.70;99.90;;;15.24;100.00;101470.81;4185987;28;20025;-68
2023/05/22 08:05:27;;;;;;;7.13;3.75;;;15.80;99.90;;;15.40;100.00;101475.28;4190164;28;20029;-69
2023/05/22 08:07:28;;;;;;;8.25;3.88;;;15.90;99.90;;;15.50;100.00;101474.13;4192106;28;20487;-68
2023/05/22 08:09:29;;;;;;;9.65;3.70;;;16.00;99.90;;;15.57;99.08;101465.47;4201660;28;20028;-69
2023/05/22 08:11:30;;;;;;;6.15;3.80;;;16.10;99.90;;;15.69;99.43;101480.88;4186110;28;20028;-69
2023/05/22 08:13:31;;;;;;;5.35;3.53;;;16.10;99.90;;;15.75;98.59;101474.03;4186369;28;20060;-69
2023/05/22 08:15:33;;;;;;;9.68;4.97;;;16.20;99.90;;;15.74;96.34;101469.75;4194558;28;20075;-68
2023/05/22 08:17:34;;;;;;;8.77;3.75;;;16.30;99.90;;;15.85;96.07;101474.69;4196612;28;20028;-69
2023/05/22 08:19:35;;;;;;;11.55;3.47;;;16.30;99.90;;;15.97;94.39;101478.63;4188450;28;20060;-69
2023/05/22 08:21:36;;;;;;;9.48;3.38;;;16.40;99.90;;;15.94;92.74;101473.66;4188378;28;20075;-68
2023/05/22 08:23:37;;;;;;;6.65;3.10;;;16.50;99.90;;;16.13;93.01;101478.53;4194353;28;20016;-69
2023/05/22 08:25:38;;;;;;;5.57;3.58;;;16.50;99.90;;;16.27;91.70;101474.31;4194614;28;20035;-69